Meath Environmental Platform

Observations for Trim Patrick St

Time AQI Temp °C Hum % Pres Pa CO μg/m³ H₂S μg/m³ NO μg/m³ NO₂ μg/m³ O₃ μg/m³ SO₂ μg/m³ PM1 μg/m³ PM2.5 μg/m³ PM10 μg/m³
Monday 3 August 2026
00:03 2 15.6 82 38,460 0.18 0 1.62 22.37 25.66 0 6.29 11.39 12.53
00:00 2 15.6 82 38,460 0.18 0.75 1.66 30 39.27 0 7.14 11.37 12.51
Sunday 2 August 2026
23:58 2 15.6 82 38,460 0.19 0 1.51 17.97 17.49 0 6.29 9.96 10.96
23:57 2 15.6 82 38,460 0.18 0 1.52 22.25 27.84 0 7.14 11.35 12.49
23:56 2 15.6 82 38,460 0.18 0.51 1.7 27.47 28.36 0 8 10.66 11.72
23:53 2 15.6 82 38,460 0.19 0.67 1.63 23.52 28.3 0 8 10.64 11.7
23:52 2 15.6 82 38,460 0.18 0.62 1.51 23.04 21.9 0 5.43 9.25 10.17
23:51 2 15.6 82 38,460 0.18 1.66 1.62 33.29 38.49 0 7.14 11.34 12.48
23:50 2 15.6 82 38,460 0.19 0 1.61 20.53 24.81 0 7.14 10.64 11.7
23:49 2 15.6 82 38,460 0.18 0 1.72 22.8 27.47 0 7.14 11.34 12.47
23:48 2 15.6 82 38,460 0.18 1.04 1.71 28.01 27.58 0 6.29 10.64 11.7
23:47 2 15.6 82 38,460 0.19 0.25 1.64 19.06 21.99 0 7.14 12.02 13.23
23:46 2 15.6 82 38,460 0.18 1.87 1.64 29.85 25.02 0 7.14 11.34 12.47
23:45 2 15.6 82 38,460 0.18 0.96 1.77 25.18 29.14 0 7.14 12.03 13.23
23:44 2 15.6 82 38,460 0.19 2.5 1.7 28.77 35.31 0 8 12.03 13.23
23:43 2 15.6 82 38,460 0.19 0.07 1.67 26.38 19.46 0 6.29 11.33 12.46
23:42 2 15.6 82 38,460 0.18 1.09 1.71 25.21 31.32 0 6.29 10.63 11.7
23:41 2 15.6 82 38,460 0.19 0.83 1.63 25.45 29.69 0 7.14 12.02 13.23
23:40 2 15.6 82 38,460 0.18 0 1.49 21.89 21.39 0 6.29 11.32 12.45
23:39 2 15.6 82 38,460 0.19 1.71 1.43 24.06 26.67 0 7.14 12.71 13.98